Kearney, NE

2:46 AM CST on December 10, 2016 (GMT -0600)
Kearney Municipal | | Change Station

Elev 2129 ft 40.73 °N, 99.01 °W | Updated 11 minutes ago

Overcast
Overcast
19 °F
Feels Like 10 °F
N
8
Wind Variable Wind from SE

Today
High -- | Low -- °F
--% Chance of Precip.
Yesterday
High -- | Low -- °F
Precip. -- in
Pressure 30.33 in
Visibility 10.0 miles
Clouds Mostly Cloudy 7000 ft
Overcast 8000 ft
Windchill 10 °F
Dew Point 12 °F
Humidity 74%
Rainfall 0.00 in
Snow Depth Not available.
7:49 AM 5:08 PM
Waxing Gibbous, 82% visible
METAR KEAR 100835Z AUTO 14007KT 10SM BKN070 OVC080 M07/M11 A3033 RMK AO1
Pressure 30.33 in
Visibility 10.0 miles
Clouds Mostly Cloudy 7000 ft
Overcast 8000 ft
Windchill 10 °F
Dew Point 12 °F
Humidity 74%
Rainfall 0.00 in
Snow Depth Not available.
7:49 AM 5:08 PM
Waxing Gibbous, 82% visible
METAR KEAR 100835Z AUTO 14007KT 10SM BKN070 OVC080 M07/M11 A3033 RMK AO1

10-Day Weather Forecast

Almanac

Astronomy

Dec. 10, 2016 Rise Set
Actual Time
Civil Twilight
Nautical Twilight
Astronomical Twilight
Moon
Length of Visible Light
Length of Day
Tomorrow will be .
, % of the Moon is Illuminated

Today's Extremes

State Highs State Lows

Community

WunderPhotos

Upload Photos

1,956,538 photos uploaded!

WunderBlog® & News

Nearby

Air Quality

  Air Quality AQ Index Pollutant
Not available.

Snow Depth

Station Depth Elevation

Earthquake Activity

City Distance Mag. Time & Date
Minimum magnitude displayed is 2.5.

Coastal Water Temperatures

Place Temperature

Stations

Nearby Weather Stations

Station Location Temp. Windchill Dew Point Humidity Wind Precip. Elev Updated Type
                   

Watches & Warnings

There are currently no watches in effect.